METAR Data
IDs: Format: Raw Decoded Include TAF

Data at: 0309 UTC 10 Dec 2022

METAR for:KCVG (Cincinnati Intl, KY, US)
Text:KCVG 100252Z 00000KT 2SM BR BKN007 OVC035 07/07 A3012 RMK AO2 SFC VIS 2 1/2 SLP201 BKN V OVC PTCHY MIFG T00720072 51007 $
Temperature: 7.2°C ( 45°F)
Dewpoint: 7.2°C ( 45°F) [RH = 100%]
Pressure (altimeter):30.12 inches Hg (1020.1 mb) [Sea level pressure: 1020.1 mb]
Winds:calm
Visibility: 2.00 sm ( 3.22 km)
Ceiling:700 feet AGL
Clouds: broken clouds at 700 feet AGL, overcast cloud deck at 3500 feet AGL
Weather:BR (mist)
QC Flag:SOME DATA ABOVE MAY BE INACCURATE!!!"$" is an indication the sensor requires maintenance.